Time;durP1;ratioP1;P1;durP2;ratioP2;P2;SDS_P1;SDS_P2;PMS_P1;PMS_P2;Temp;Humidity;BMP_temperature;BMP_pressure;BME280_temperature;BME280_humidity;BME280_pressure;Samples;Min_cycle;Max_cycle;Signal;HPM_P1;HPM_P2
2022/01/24 00:00:58;;;;;;;17.02;10.02;;;;;;;-1.02;66.00;101484.91;5034428;28;20029;-81
2022/01/24 00:03:24;;;;;;;17.42;10.43;;;;;;;-0.99;66.24;101494.53;5034529;28;20053;-81
2022/01/24 00:05:51;;;;;;;18.40;9.65;;;;;;;-1.06;66.40;101492.91;5049434;28;20033;-79
2022/01/24 00:08:16;;;;;;;19.40;11.50;;;;;;;-0.97;66.19;101508.56;5046311;28;20035;-80
2022/01/24 00:10:45;;;;;;;20.70;10.20;;;;;;;-0.84;66.36;101528.53;5037391;28;20021;-80
2022/01/24 00:16:17;;;;;;;19.15;11.32;;;;;;;-0.85;66.07;101519.75;5045558;28;20027;-81
2022/01/24 00:26:55;;;;;;;20.45;10.88;;;;;;;-0.98;66.39;101522.69;5054024;28;20063;-80
2022/01/24 00:29:24;;;;;;;22.45;12.40;;;;;;;-0.95;66.71;101533.19;5054767;28;20028;-80
2022/01/24 00:31:51;;;;;;;22.75;12.02;;;;;;;-1.04;66.60;101521.00;5054192;28;20037;-80
2022/01/24 00:34:17;;;;;;;23.70;12.73;;;;;;;-0.91;66.31;101529.56;5054253;28;20120;-80
2022/01/24 00:36:46;;;;;;;20.42;11.40;;;;;;;-1.07;66.24;101507.88;5055106;28;20070;-81
2022/01/24 00:39:12;;;;;;;31.35;11.85;;;;;;;-1.11;66.42;101533.47;5059357;28;20021;-79
2022/01/24 00:41:55;;;;;;;25.27;12.07;;;;;;;-1.04;65.54;101520.16;5054047;28;20178;-81
2022/01/24 00:47:00;;;;;;;28.35;13.63;;;;;;;-1.20;66.16;101536.31;5053396;28;20478;-79
2022/01/24 00:49:46;;;;;;;27.40;13.10;;;;;;;-1.14;66.35;101533.53;5054465;28;20013;-79
2022/01/24 00:54:55;;;;;;;29.15;14.55;;;;;;;-1.20;66.58;101536.31;5037242;28;20098;-83
2022/01/24 00:57:22;;;;;;;27.90;13.98;;;;;;;-1.17;66.69;101541.50;5035563;28;20239;-85
2022/01/24 00:59:49;;;;;;;33.08;14.82;;;;;;;-1.17;66.79;101541.50;5034766;28;20442;-83
2022/01/24 01:02:16;;;;;;;24.25;13.52;;;;;;;-1.15;66.62;101547.63;5017214;28;20033;-83
2022/01/24 01:08:01;;;;;;;48.00;20.70;;;;;;;-1.15;66.78;101542.34;5037009;28;20033;-85
2022/01/24 01:18:34;;;;;;;27.30;14.13;;;;;;;-1.44;66.89;101527.97;5029043;28;20060;-83
2022/01/24 01:23:38;;;;;;;37.83;16.00;;;;;;;-1.29;66.85;101551.44;5038928;28;20388;-83
2022/01/24 01:26:08;;;;;;;27.63;14.68;;;;;;;-1.33;66.53;101570.84;5042106;28;20075;-81
2022/01/24 01:28:35;;;;;;;30.48;15.45;;;;;;;-1.42;67.00;101558.69;5044925;28;20022;-83
2022/01/24 01:31:06;;;;;;;28.02;15.70;;;;;;;-1.51;67.14;101537.75;5011751;28;20053;-83
2022/01/24 01:39:36;;;;;;;33.92;16.63;;;;;;;-1.50;67.88;101557.09;4981606;28;20600;-84
2022/01/24 01:52:57;;;;;;;39.25;17.80;;;;;;;-1.54;68.13;101555.38;5033939;28;20422;-84
2022/01/24 01:55:37;;;;;;;61.13;17.52;;;;;;;-1.50;68.30;101563.25;5033314;28;20034;-83
2022/01/24 01:58:11;;;;;;;35.63;16.55;;;;;;;-1.52;68.54;101562.38;5035495;28;20144;-85
2022/01/24 02:00:43;;;;;;;39.65;19.08;;;;;;;-1.65;68.54;101558.19;5036584;28;20021;-84
2022/01/24 02:03:09;;;;;;;37.13;18.33;;;;;;;-1.75;68.93;101548.72;5019938;28;20108;-83
2022/01/24 02:05:36;;;;;;;44.00;18.90;;;;;;;-1.61;68.69;101573.06;5039753;28;20049;-85
2022/01/24 02:08:01;;;;;;;39.30;18.92;;;;;;;-1.64;69.28;101567.84;5039636;28;20017;-84
2022/01/24 02:10:27;;;;;;;47.78;21.20;;;;;;;-1.64;69.09;101562.56;5035736;28;20079;-84
2022/01/24 02:12:55;;;;;;;45.50;20.73;;;;;;;-1.63;69.07;101569.59;5036420;28;20082;-83
2022/01/24 02:23:13;;;;;;;50.20;21.60;;;;;;;-1.76;69.63;101568.94;5041905;28;20025;-84
2022/01/24 02:25:35;;;;;;;42.92;20.42;;;;;;;-1.70;69.59;101573.22;5041749;28;20029;-84
2022/01/24 02:28:03;;;;;;;40.30;21.02;;;;;;;-1.67;69.59;101573.19;5023687;28;20021;-84
2022/01/24 02:33:13;;;;;;;40.65;20.63;;;;;;;-1.62;69.45;101571.31;5024488;28;20091;-83
2022/01/24 02:35:39;;;;;;;38.08;19.88;;;;;;;-1.64;68.88;101567.84;5038312;28;20018;-84
2022/01/24 02:38:13;;;;;;;40.08;20.40;;;;;;;-1.61;69.11;101585.38;5036947;28;20104;-82
2022/01/24 02:40:39;;;;;;;38.10;18.55;;;;;;;-1.63;69.12;101580.16;5037321;28;20025;-83
2022/01/24 02:48:49;;;;;;;43.35;19.70;;;;;;;-1.68;69.03;101569.66;5033141;28;20087;-86
2022/01/24 02:53:59;;;;;;;33.55;17.80;;;;;;;-1.60;68.52;101590.66;5037694;28;20506;-85
2022/01/24 02:56:24;;;;;;;32.83;18.58;;;;;;;-1.66;68.78;101585.47;5037459;28;20025;-83
2022/01/24 02:58:50;;;;;;;44.92;21.70;;;;;;;-1.58;68.30;101609.06;5036894;28;20475;-83
2022/01/24 03:01:15;;;;;;;37.30;18.48;;;;;;;-1.53;68.05;101601.97;5036874;28;20458;-83
2022/01/24 03:03:43;;;;;;;34.75;17.10;;;;;;;-1.59;68.53;101613.47;5036309;28;20527;-84
2022/01/24 03:06:08;;;;;;;43.40;20.08;;;;;;;-1.54;68.18;101621.31;5036850;28;20030;-83
2022/01/24 03:08:38;;;;;;;36.03;18.63;;;;;;;-1.68;68.57;101611.84;5040872;28;20057;-84
2022/01/24 03:11:04;;;;;;;36.55;19.23;;;;;;;-1.63;67.95;101611.81;5035834;28;20108;-83
2022/01/24 03:13:33;;;;;;;37.30;19.25;;;;;;;-1.61;68.23;101619.66;5036291;28;20040;-84
2022/01/24 03:16:01;;;;;;;35.38;18.63;;;;;;;-1.67;68.06;101628.56;5035490;28;20025;-84
2022/01/24 03:18:27;;;;;;;37.25;18.48;;;;;;;-1.61;68.34;101644.28;5035910;28;20033;-85
2022/01/24 03:20:53;;;;;;;42.03;19.90;;;;;;;-1.53;68.22;101644.19;5017699;28;20026;-84
2022/01/24 03:23:23;;;;;;;44.60;21.08;;;;;;;-1.54;68.21;101645.94;5036078;28;20033;-84
2022/01/24 03:25:49;;;;;;;39.85;20.85;;;;;;;-1.54;68.42;101653.84;5019624;28;20040;-83
2022/01/24 03:28:15;;;;;;;42.22;20.20;;;;;;;-1.63;68.34;101643.44;5019417;28;20041;-84
2022/01/24 03:30:41;;;;;;;39.58;19.45;;;;;;;-1.71;68.54;101640.03;5036669;28;20438;-82
2022/01/24 03:33:08;;;;;;;43.33;19.85;;;;;;;-1.55;68.82;101649.47;5036039;28;20036;-83
2022/01/24 03:35:34;;;;;;;44.17;19.80;;;;;;;-1.69;68.56;101659.38;5019568;28;20026;-84
2022/01/24 03:38:01;;;;;;;45.35;20.52;;;;;;;-1.52;69.04;101669.66;5037828;28;20029;-83
2022/01/24 03:40:27;;;;;;;37.05;19.73;;;;;;;-1.59;68.70;101668.84;5038514;28;20467;-86
2022/01/24 03:42:52;;;;;;;45.03;22.05;;;;;;;-1.56;68.76;101671.44;5020655;28;20056;-86
2022/01/24 03:45:25;;;;;;;43.63;20.73;;;;;;;-1.53;68.86;101671.44;5020240;28;20053;-84
2022/01/24 03:48:06;;;;;;;43.78;22.45;;;;;;;-1.61;69.28;101660.09;5021557;28;20418;-84
2022/01/24 03:50:32;;;;;;;42.47;22.50;;;;;;;-1.53;68.94;101695.19;5044773;28;20120;-85
2022/01/24 03:52:57;;;;;;;44.90;22.27;;;;;;;-1.66;69.73;101656.69;5023053;28;20084;-83
2022/01/24 03:55:23;;;;;;;50.75;23.88;;;;;;;-1.64;69.52;101668.06;5036644;28;20041;-83
2022/01/24 03:57:48;;;;;;;43.42;22.92;;;;;;;-1.62;69.73;101661.00;5035957;28;20022;-83
2022/01/24 04:00:14;;;;;;;43.38;22.25;;;;;;;-1.57;69.69;101675.00;5035042;28;20395;-83
2022/01/24 04:02:40;;;;;;;49.20;24.42;;;;;;;-1.51;69.67;101674.91;5035163;28;20092;-83
2022/01/24 04:05:06;;;;;;;43.10;21.88;;;;;;;-1.53;69.30;101654.72;5034577;28;20112;-82
2022/01/24 04:07:33;;;;;;;39.55;22.02;;;;;;;-1.43;69.50;101686.19;5034902;28;20057;-83
2022/01/24 04:10:05;;;;;;;49.22;24.17;;;;;;;-1.35;69.08;101688.75;5035042;28;20029;-84
2022/01/24 04:12:30;;;;;;;48.60;23.20;;;;;;;-1.30;68.67;101687.75;5034924;28;20406;-84
2022/01/24 04:15:09;;;;;;;40.92;20.92;;;;;;;-1.33;68.99;101674.63;5035511;28;20167;-84
2022/01/24 04:17:42;;;;;;;39.15;22.48;;;;;;;-1.36;68.76;101666.75;5034614;28;20017;-84
2022/01/24 04:22:55;;;;;;;45.15;22.20;;;;;;;-1.31;68.39;101686.00;5035138;28;20191;-83
2022/01/24 04:25:23;;;;;;;39.75;21.70;;;;;;;-1.29;68.32;101691.28;5034767;28;20021;-85
2022/01/24 04:27:51;;;;;;;45.13;23.92;;;;;;;-1.28;68.28;101695.63;5034017;28;20029;-84
2022/01/24 04:30:17;;;;;;;44.85;23.10;;;;;;;-1.28;68.35;101708.84;5034610;28;20513;-82
2022/01/24 04:32:43;;;;;;;48.28;22.98;;;;;;;-1.26;67.82;101709.69;5018763;28;20029;-84
2022/01/24 04:35:08;;;;;;;55.08;22.75;;;;;;;-1.29;68.22;101715.91;5016379;28;20032;-85
2022/01/24 04:37:34;;;;;;;44.83;21.98;;;;;;;-1.39;68.79;101706.38;5033825;28;20021;-84
2022/01/24 04:39:59;;;;;;;53.53;23.95;;;;;;;-1.37;68.79;101704.56;5033576;28;20021;-84
2022/01/24 04:42:36;;;;;;;45.13;23.23;;;;;;;-1.39;68.50;101706.38;5033488;28;20025;-83
2022/01/24 04:45:29;;;;;;;51.20;22.63;;;;;;;-1.26;68.35;101731.69;5043236;28;20056;-83
2022/01/24 04:51:08;;;;;;;54.08;24.85;;;;;;;-1.24;68.10;101734.28;5010251;28;20043;-83
2022/01/24 04:54:03;;;;;;;43.58;24.02;;;;;;;-1.21;67.71;101737.75;5014043;28;20088;-84
2022/01/24 04:56:20;;;;;;;46.20;23.90;;;;;;;-1.15;68.17;101732.38;5012694;28;20041;-83
2022/01/24 04:58:45;;;;;;;43.20;23.38;;;;;;;-1.08;67.64;101740.19;5015260;28;20022;-85
2022/01/24 05:01:12;;;;;;;47.22;23.77;;;;;;;-1.04;67.79;101760.38;5015762;28;20115;-84
2022/01/24 05:03:37;;;;;;;46.05;24.55;;;;;;;-1.10;67.44;101745.50;4997897;28;20087;-85
2022/01/24 05:06:03;;;;;;;54.17;25.50;;;;;;;-1.13;67.46;101753.47;5032390;28;20466;-86
2022/01/24 05:08:29;;;;;;;53.45;24.52;;;;;;;-1.14;67.87;101755.25;5017415;28;20022;-86
2022/01/24 05:11:09;;;;;;;49.63;24.52;;;;;;;-1.08;67.56;101753.41;5030494;28;20109;-85
2022/01/24 05:24:32;;;;;;;47.45;24.02;;;;;;;-1.19;68.17;101772.91;5014912;28;20099;-84
2022/01/24 05:26:57;;;;;;;51.45;23.90;;;;;;;-1.28;67.98;101765.13;5039640;28;20025;-79
2022/01/24 05:29:23;;;;;;;57.92;25.58;;;;;;;-1.19;68.41;101788.75;5051669;28;20548;-79
2022/01/24 05:31:50;;;;;;;55.63;25.08;;;;;;;-1.14;68.60;101786.94;5052752;28;20029;-79
2022/01/24 05:34:17;;;;;;;47.53;25.27;;;;;;;-1.18;68.00;101786.97;5031308;28;20032;-84
2022/01/24 05:36:43;;;;;;;48.75;24.17;;;;;;;-1.29;68.54;101805.63;5055805;28;20032;-83
2022/01/24 05:39:08;;;;;;;53.83;24.42;;;;;;;-1.20;68.28;101792.31;5045995;28;20009;-83
2022/01/24 05:41:36;;;;;;;47.08;23.17;;;;;;;-1.11;67.99;101802.72;5033026;28;20033;-81
2022/01/24 05:44:01;;;;;;;47.80;24.92;;;;;;;-1.08;68.06;101801.78;5044583;28;20087;-77
2022/01/24 05:46:27;;;;;;;47.30;25.10;;;;;;;-1.07;67.88;101813.22;5026598;28;20077;-81
2022/01/24 05:48:54;;;;;;;52.70;23.58;;;;;;;-1.07;67.75;101823.78;5025815;28;20021;-78
2022/01/24 05:51:20;;;;;;;59.97;28.48;;;;;;;-1.02;67.26;101795.53;5013192;28;20022;-83
2022/01/24 05:53:46;;;;;;;45.80;21.80;;;;;;;-0.98;66.73;101810.47;5032867;28;20542;-80
2022/01/24 05:56:11;;;;;;;52.08;24.17;;;;;;;-0.94;66.63;101830.63;5037197;28;20037;-81
2022/01/24 05:58:37;;;;;;;41.67;19.77;;;;;;;-1.03;66.28;101814.91;5032104;28;20026;-87
2022/01/24 06:01:03;;;;;;;39.97;20.40;;;;;;;-1.05;66.40;101806.16;5037141;28;20025;-81
2022/01/24 06:03:28;;;;;;;40.95;19.70;;;;;;;-0.89;65.76;101819.13;5030308;28;20097;-85
2022/01/24 06:05:54;;;;;;;39.67;20.45;;;;;;;-1.02;65.60;101806.09;5021008;28;20101;-82
2022/01/24 06:08:19;;;;;;;33.60;17.00;;;;;;;-1.02;65.55;101816.66;5017821;28;20022;-79
2022/01/24 06:10:47;;;;;;;42.72;19.52;;;;;;;-0.95;65.73;101840.34;5049384;28;20010;-84
2022/01/24 06:13:12;;;;;;;43.95;18.63;;;;;;;-1.07;65.40;101824.63;5057217;28;20123;-80
2022/01/24 06:15:38;;;;;;;44.13;19.27;;;;;;;-0.99;65.20;101845.66;5058153;28;20056;-83
2022/01/24 06:18:03;;;;;;;31.63;17.70;;;;;;;-0.88;64.63;101841.97;5041552;28;20036;-87
2022/01/24 06:20:29;;;;;;;43.65;19.15;;;;;;;-0.97;64.41;101825.38;5060818;28;20017;-91
2022/01/24 06:22:54;;;;;;;39.83;16.95;;;;;;;-0.93;64.48;101837.66;5054189;28;20024;-85
2022/01/24 06:25:21;;;;;;;44.25;18.70;;;;;;;-0.85;63.89;101841.03;5041466;28;20025;-84
2022/01/24 06:27:46;;;;;;;35.35;17.17;;;;;;;-0.87;64.12;101858.69;5052862;28;20104;-83
2022/01/24 06:30:13;;;;;;;45.85;18.92;;;;;;;-0.82;64.52;101851.56;5039183;28;20118;-80
2022/01/24 06:32:38;;;;;;;36.05;17.02;;;;;;;-0.96;63.57;101830.66;5042605;28;20044;-82
2022/01/24 06:35:05;;;;;;;43.13;15.40;;;;;;;-0.90;63.08;101838.47;5031829;28;20025;-86
2022/01/24 06:37:30;;;;;;;47.03;16.92;;;;;;;-0.98;63.35;101839.50;5058055;28;20024;-84
2022/01/24 06:39:56;;;;;;;36.47;16.83;;;;;;;-0.91;63.87;101851.69;5057742;28;20021;-83
2022/01/24 06:42:23;;;;;;;45.40;17.40;;;;;;;-0.98;64.17;101858.84;5057310;28;20057;-83
2022/01/24 06:44:53;;;;;;;40.55;16.13;;;;;;;-0.97;63.72;101859.69;5056579;28;20028;-83
2022/01/24 06:47:19;;;;;;;31.65;15.07;;;;;;;-0.90;63.77;101859.59;5056132;28;20079;-82
2022/01/24 06:49:45;;;;;;;29.77;16.00;;;;;;;-0.94;63.32;101851.75;5056134;28;20024;-84
2022/01/24 06:52:13;;;;;;;32.53;17.75;;;;;;;-1.02;63.76;101858.91;5049573;28;20083;-85
2022/01/24 06:54:41;;;;;;;29.67;16.85;;;;;;;-1.01;64.17;101844.81;5019672;28;20532;-85
2022/01/24 06:57:11;;;;;;;30.30;16.08;;;;;;;-1.00;64.05;101846.53;5038027;28;20029;-82
2022/01/24 06:59:40;;;;;;;40.05;18.52;;;;;;;-0.94;63.43;101825.34;5036332;28;20367;-83
2022/01/24 07:02:07;;;;;;;30.58;15.15;;;;;;;-1.00;63.34;101825.44;5039359;28;20472;-85
2022/01/24 07:04:33;;;;;;;31.38;13.80;;;;;;;-0.79;62.77;101873.50;5023053;28;20028;-85
2022/01/24 07:06:59;;;;;;;24.95;12.85;;;;;;;-0.77;63.04;101841.81;5050930;28;20089;-86
2022/01/24 07:09:25;;;;;;;25.60;12.82;;;;;;;-0.85;62.85;101849.84;5056354;28;20012;-86
2022/01/24 07:11:51;;;;;;;33.05;14.27;;;;;;;-0.93;62.67;101832.38;5056237;28;20027;-86
2022/01/24 07:14:17;;;;;;;35.38;14.90;;;;;;;-0.91;62.55;101839.38;5022568;28;20036;-85
2022/01/24 07:17:05;;;;;;;34.30;16.42;;;;;;;-0.95;62.50;101853.53;5036078;28;20434;-84
2022/01/24 07:19:32;;;;;;;30.50;15.18;;;;;;;-0.99;63.20;101840.38;5017711;28;20028;-86
2022/01/24 07:22:01;;;;;;;39.38;18.92;;;;;;;-0.85;62.95;101868.31;5017879;28;20461;-86
2022/01/24 07:24:27;;;;;;;30.83;16.05;;;;;;;-0.82;63.08;101872.69;5035969;28;20030;-85
2022/01/24 07:26:52;;;;;;;39.40;16.13;;;;;;;-0.78;63.00;101885.84;5017222;28;20064;-84
2022/01/24 07:29:18;;;;;;;41.15;16.17;;;;;;;-0.83;63.14;101882.41;5017291;28;20056;-87
2022/01/24 07:31:46;;;;;;;36.50;15.95;;;;;;;-0.72;63.29;101885.75;5035288;28;20026;-85
2022/01/24 07:34:12;;;;;;;35.60;15.00;;;;;;;-0.69;62.67;101895.38;5018237;28;20029;-86
2022/01/24 07:36:38;;;;;;;26.63;13.35;;;;;;;-0.75;62.76;101858.50;5017318;28;20075;-85
2022/01/24 07:39:03;;;;;;;33.00;14.02;;;;;;;-0.74;62.10;101876.09;5017767;28;20021;-86
2022/01/24 07:41:31;;;;;;;49.28;14.13;;;;;;;-0.59;61.71;101891.72;5017444;28;20029;-85
2022/01/24 07:43:57;;;;;;;28.52;14.30;;;;;;;-0.55;61.77;101885.47;5035197;28;20101;-84
2022/01/24 07:46:23;;;;;;;26.75;14.02;;;;;;;-0.56;61.67;101892.53;5017039;28;20025;-85
2022/01/24 07:48:48;;;;;;;27.88;15.65;;;;;;;-0.44;61.66;101896.75;5034704;28;20403;-85
2022/01/24 07:51:15;;;;;;;27.13;15.65;;;;;;;-0.51;61.90;101866.03;5035229;28;20348;-85
2022/01/24 07:53:41;;;;;;;46.00;16.95;;;;;;;-0.39;61.81;101886.97;5036024;28;20025;-86
2022/01/24 07:56:08;;;;;;;40.30;16.48;;;;;;;-0.40;61.31;101902.88;5018005;28;20021;-86
2022/01/24 07:58:33;;;;;;;35.47;16.00;;;;;;;-0.56;61.41;101891.66;5017122;28;20021;-87
2022/01/24 08:00:59;;;;;;;42.13;19.35;;;;;;;-0.56;61.76;101886.38;5036438;28;20056;-88
2022/01/24 08:03:26;;;;;;;32.03;17.23;;;;;;;-0.64;62.38;101882.97;5015997;28;20154;-81
2022/01/24 08:05:52;;;;;;;51.85;16.55;;;;;;;-0.58;62.33;101888.16;5033854;28;20030;-80
2022/01/24 08:08:17;;;;;;;31.13;15.23;;;;;;;-0.74;62.23;101869.06;5033763;28;20459;-80
2022/01/24 08:10:43;;;;;;;31.65;16.55;;;;;;;-0.63;62.27;101879.44;5033286;28;20464;-80
2022/01/24 08:13:08;;;;;;;47.67;16.98;;;;;;;-0.65;62.48;101897.09;5033768;28;20035;-81
2022/01/24 08:15:34;;;;;;;38.83;16.77;;;;;;;-0.53;62.06;101918.03;5033481;28;20083;-81
2022/01/24 08:17:59;;;;;;;35.63;15.70;;;;;;;-0.49;62.57;101901.25;5034763;28;20029;-92
2022/01/24 08:20:25;;;;;;;37.67;14.13;;;;;;;-0.52;61.74;101893.34;5036583;28;20017;-85
2022/01/24 08:22:51;;;;;;;38.92;16.88;;;;;;;-0.57;62.13;101896.06;5018495;28;20025;-90
2022/01/24 08:25:17;;;;;;;36.33;15.05;;;;;;;-0.46;61.93;101901.19;5022257;28;20030;-91
2022/01/24 08:27:43;;;;;;;34.97;15.45;;;;;;;-0.50;62.02;101909.19;5021515;28;20028;-89
2022/01/24 08:30:14;;;;;;;37.30;17.98;;;;;;;-0.58;62.13;101906.66;5035821;28;20022;-90
2022/01/24 08:32:40;;;;;;;39.35;16.00;;;;;;;-0.44;62.54;101906.44;5017365;28;20454;-85
2022/01/24 08:35:06;;;;;;;33.20;16.13;;;;;;;-0.40;61.92;101914.31;5036169;28;20030;-91
2022/01/24 08:37:32;;;;;;;34.00;14.20;;;;;;;-0.36;61.97;101905.41;5018126;28;20041;-90
2022/01/24 08:39:59;;;;;;;34.80;14.30;;;;;;;-0.20;61.50;101912.22;5018296;28;20030;-91
2022/01/24 08:42:39;;;;;;;38.97;15.50;;;;;;;-0.13;61.53;101908.56;5018867;28;20480;-88
2022/01/24 08:47:36;;;;;;;37.53;15.02;;;;;;;-0.07;61.03;101897.88;5051506;28;20036;-84
2022/01/24 08:50:05;;;;;;;35.50;16.58;;;;;;;-0.08;60.91;101921.69;5040430;28;20026;-87
2022/01/24 08:52:30;;;;;;;40.08;19.95;;;;;;;-0.11;61.57;101927.03;5033428;28;20057;-81
2022/01/24 08:54:56;;;;;;;40.15;20.83;;;;;;;-0.17;61.38;101928.03;5029355;28;20506;-79
2022/01/24 08:57:25;;;;;;;37.63;15.50;;;;;;;-0.17;61.02;101938.59;5035192;28;20033;-84
2022/01/24 08:59:53;;;;;;;30.52;15.88;;;;;;;-0.27;61.19;101926.41;5035379;28;20105;-77
2022/01/24 09:02:19;;;;;;;33.15;16.52;;;;;;;-0.18;61.10;101936.84;5048646;28;20031;-82
2022/01/24 09:04:44;;;;;;;47.05;19.58;;;;;;;-0.10;61.28;101924.38;5049427;28;20411;-79
2022/01/24 09:07:10;;;;;;;44.83;16.67;;;;;;;-0.21;60.86;101931.59;5053243;28;20031;-79
2022/01/24 09:09:36;;;;;;;33.92;14.30;;;;;;;-0.11;61.55;101937.63;5052203;28;20028;-82
2022/01/24 09:12:04;;;;;;;28.70;15.20;;;;;;;-0.12;61.23;101927.94;5025188;28;20022;-79
2022/01/24 09:14:30;;;;;;;46.05;17.35;;;;;;;-0.05;61.17;101933.09;5052608;28;20124;-80
2022/01/24 09:16:56;;;;;;;43.25;16.48;;;;;;;-0.04;60.70;101929.56;5051475;28;20053;-78
2022/01/24 09:19:21;;;;;;;25.60;13.57;;;;;;;0.07;60.32;101923.19;5052348;28;20459;-79
2022/01/24 09:21:47;;;;;;;29.45;13.43;;;;;;;0.15;60.00;101916.03;5051790;28;20035;-79
2022/01/24 09:24:12;;;;;;;29.42;13.93;;;;;;;0.08;60.24;101922.31;5047238;28;20032;-79
2022/01/24 09:26:38;;;;;;;42.53;13.93;;;;;;;0.17;60.01;101932.72;5043038;28;20528;-77
2022/01/24 09:29:04;;;;;;;34.13;13.85;;;;;;;0.18;59.86;101919.50;5031437;28;20040;-78
2022/01/24 09:31:29;;;;;;;25.98;13.20;;;;;;;0.38;60.17;101903.22;5034238;28;20030;-75
2022/01/24 09:33:55;;;;;;;25.45;14.45;;;;;;;0.41;60.02;101895.22;5057313;28;20028;-81
2022/01/24 09:36:21;;;;;;;27.63;13.50;;;;;;;0.62;59.00;101900.09;5056949;28;20496;-81
2022/01/24 09:38:46;;;;;;;20.25;12.15;;;;;;;0.62;58.36;101889.50;5047229;28;20108;-82
2022/01/24 09:41:13;;;;;;;21.98;13.60;;;;;;;0.82;58.43;101910.28;5055278;28;20021;-79
2022/01/24 09:43:39;;;;;;;29.25;14.30;;;;;;;0.92;57.81;101896.81;5050188;28;20687;-79
2022/01/24 09:46:05;;;;;;;25.50;13.80;;;;;;;1.00;57.51;101924.00;5055035;28;20029;-80
2022/01/24 09:48:31;;;;;;;23.73;11.75;;;;;;;0.87;57.61;101895.16;5055581;28;20482;-79
2022/01/24 09:50:57;;;;;;;24.23;12.55;;;;;;;1.00;57.30;101907.25;5055984;28;20036;-79
2022/01/24 09:53:24;;;;;;;24.58;13.27;;;;;;;1.05;57.48;101910.66;5055749;28;20057;-80
2022/01/24 09:55:51;;;;;;;30.92;11.77;;;;;;;1.08;57.53;101910.59;5055704;28;20017;-79
2022/01/24 09:58:18;;;;;;;27.38;13.68;;;;;;;0.92;57.07;101909.16;5052374;28;20021;-83
2022/01/24 10:00:44;;;;;;;26.08;12.73;;;;;;;1.02;57.58;101916.91;5037100;28;20021;-81
2022/01/24 10:03:12;;;;;;;29.75;13.30;;;;;;;1.12;56.79;101908.75;5035705;28;20047;-81
2022/01/24 10:05:39;;;;;;;22.90;10.65;;;;;;;1.05;56.39;101921.25;5035109;28;20028;-82
2022/01/24 10:08:07;;;;;;;20.10;11.70;;;;;;;1.07;56.76;101904.41;5036087;28;20025;-81
2022/01/24 10:10:46;;;;;;;21.58;11.93;;;;;;;1.06;57.01;101926.53;5036050;28;20033;-80
2022/01/24 10:19:09;;;;;;;21.48;13.00;;;;;;;1.00;57.03;101929.31;5035289;28;20157;-80
2022/01/24 10:21:44;;;;;;;27.92;14.60;;;;;;;1.15;57.02;101932.53;5034911;28;20025;-80
2022/01/24 10:24:13;;;;;;;25.85;12.15;;;;;;;1.22;56.54;101950.03;5035177;28;20091;-79
2022/01/24 10:26:39;;;;;;;23.48;11.35;;;;;;;1.21;55.86;101937.69;5043051;28;20056;-78
2022/01/24 10:29:12;;;;;;;33.05;13.95;;;;;;;1.22;55.97;101947.38;5040201;28;20054;-78
2022/01/24 10:31:47;;;;;;;27.17;12.80;;;;;;;1.41;55.80;101938.09;5017432;28;20120;-79
2022/01/24 10:34:22;;;;;;;28.08;13.48;;;;;;;1.43;55.63;101949.56;5035699;28;20037;-80
2022/01/24 10:36:50;;;;;;;25.77;12.43;;;;;;;1.54;54.77;101947.53;5036567;28;20105;-79
2022/01/24 10:39:22;;;;;;;24.65;11.38;;;;;;;1.53;54.75;101956.38;5053986;28;20040;-77
2022/01/24 10:42:22;;;;;;;32.28;12.13;;;;;;;1.53;54.73;101967.84;5053699;28;20108;-78
2022/01/24 10:44:48;;;;;;;41.22;19.33;;;;;;;1.47;55.16;101980.38;5015569;28;20091;-77
2022/01/24 10:47:22;;;;;;;22.88;13.35;;;;;;;1.45;55.43;101983.06;5024893;28;20033;-74
2022/01/24 10:49:50;;;;;;;23.55;12.48;;;;;;;1.37;55.73;101982.38;5044510;28;20029;-76
2022/01/24 10:52:30;;;;;;;32.88;12.27;;;;;;;1.37;57.65;101974.44;5034161;28;20077;-79
2022/01/24 10:55:18;;;;;;;29.88;13.20;;;;;;;1.30;56.53;101985.19;5017921;28;20101;-78
2022/01/24 10:57:48;;;;;;;28.58;14.05;;;;;;;1.27;56.07;101985.25;5038007;28;20445;-78
2022/01/24 11:00:20;;;;;;;39.60;14.10;;;;;;;1.21;56.53;101974.78;5033226;28;20026;-76
2022/01/24 11:02:49;;;;;;;16.77;10.35;;;;;;;1.27;55.82;101978.19;5033643;28;20099;-78
2022/01/24 11:05:19;;;;;;;20.30;11.65;;;;;;;1.28;55.95;101997.59;5033604;28;20021;-76
2022/01/24 11:08:12;;;;;;;30.02;15.10;;;;;;;1.15;56.39;101990.81;5032833;28;20048;-78
2022/01/24 11:10:49;;;;;;;25.10;14.10;;;;;;;1.20;56.81;102010.13;5012642;28;20116;-75
2022/01/24 11:13:20;;;;;;;22.17;11.65;;;;;;;1.27;56.41;102009.09;5013662;28;20022;-75
2022/01/24 11:15:55;;;;;;;21.85;11.82;;;;;;;1.27;56.34;102001.16;5023130;28;20013;-82
2022/01/24 11:18:24;;;;;;;27.33;15.23;;;;;;;1.23;56.58;101999.47;5039709;28;20018;-77
2022/01/24 11:21:00;;;;;;;30.00;13.52;;;;;;;1.29;56.70;101999.31;5052014;28;20013;-77
2022/01/24 11:23:26;;;;;;;23.80;12.82;;;;;;;1.35;56.04;101983.28;5053629;28;20025;-79
2022/01/24 11:25:57;;;;;;;24.27;12.07;;;;;;;1.26;56.33;102010.88;5053630;28;20021;-79
2022/01/24 11:28:23;;;;;;;30.67;12.40;;;;;;;1.25;56.14;102010.94;5028215;28;20052;-78
2022/01/24 11:31:16;;;;;;;25.75;13.27;;;;;;;1.15;56.14;102004.06;5037090;28;20028;-77
2022/01/24 11:33:47;;;;;;;24.73;13.15;;;;;;;1.16;56.07;102001.41;5052792;28;20037;-78
2022/01/24 11:36:12;;;;;;;26.05;12.40;;;;;;;1.13;56.86;101997.94;5034365;28;20462;-79
2022/01/24 11:38:45;;;;;;;30.67;14.73;;;;;;;1.07;57.07;102010.38;5033666;28;20037;-79
2022/01/24 11:41:26;;;;;;;39.25;16.05;;;;;;;1.26;57.13;101999.41;5033536;28;20040;-78
2022/01/24 11:43:55;;;;;;;34.45;16.90;;;;;;;1.28;56.50;101993.19;5035460;28;20021;-85
2022/01/24 11:46:47;;;;;;;29.15;12.98;;;;;;;1.33;56.11;102001.91;5033456;28;20026;-79
2022/01/24 11:49:36;;;;;;;24.85;14.43;;;;;;;1.30;56.58;101999.31;5033068;28;20036;-78
2022/01/24 11:52:07;;;;;;;27.40;13.60;;;;;;;1.26;56.25;102004.69;5033503;28;20108;-81
2022/01/24 11:54:47;;;;;;;33.38;16.08;;;;;;;1.23;56.74;101996.81;5033828;28;20115;-80
2022/01/24 11:57:16;;;;;;;27.85;14.73;;;;;;;1.29;56.50;102007.28;5043842;28;20055;-79
2022/01/24 11:59:42;;;;;;;35.42;15.30;;;;;;;1.14;57.00;101997.00;5015458;28;20025;-77
2022/01/24 12:02:13;;;;;;;27.55;15.63;;;;;;;1.23;56.63;102002.09;5031791;28;20032;-79
2022/01/24 12:04:59;;;;;;;28.70;15.33;;;;;;;1.26;56.51;101999.41;5031643;28;20033;-79
2022/01/24 12:07:24;;;;;;;29.02;13.68;;;;;;;1.29;56.14;101999.31;5022669;28;20048;-81
2022/01/24 12:09:52;;;;;;;31.67;15.07;;;;;;;1.25;56.19;101987.06;5046009;28;20036;-80
2022/01/24 12:12:49;;;;;;;29.23;14.32;;;;;;;1.06;56.99;102008.66;5033410;28;20029;-79
2022/01/24 12:15:36;;;;;;;67.40;15.68;;;;;;;1.17;56.83;101997.81;5008680;28;20530;-79
2022/01/24 12:18:04;;;;;;;28.17;13.45;;;;;;;1.12;57.41;102001.47;5038666;28;20083;-77
2022/01/24 12:20:34;;;;;;;28.05;14.45;;;;;;;1.25;56.45;102008.28;5037919;28;20032;-80
2022/01/24 12:23:19;;;;;;;26.85;13.68;;;;;;;1.24;56.55;102001.22;5045079;28;20026;-85
2022/01/24 12:26:02;;;;;;;30.20;14.60;;;;;;;1.26;56.66;102004.69;5040122;28;20025;-84
2022/01/24 12:28:46;;;;;;;22.20;13.13;;;;;;;1.35;56.13;102004.50;5047595;28;20032;-84
2022/01/24 12:31:21;;;;;;;25.40;14.50;;;;;;;1.27;55.73;102001.16;5044685;28;20029;-82
2022/01/24 12:34:04;;;;;;;23.10;13.30;;;;;;;1.17;56.31;102007.53;5042748;28;20025;-81
2022/01/24 12:36:39;;;;;;;23.60;11.77;;;;;;;1.28;55.89;101994.97;5034831;28;20025;-87
2022/01/24 12:39:19;;;;;;;23.70;12.68;;;;;;;1.21;55.98;101998.63;5035441;28;20059;-87
2022/01/24 12:41:50;;;;;;;25.25;14.20;;;;;;;1.29;55.99;102000.22;5016468;28;20095;-87
2022/01/24 12:46:59;;;;;;;30.70;16.33;;;;;;;1.32;56.07;102001.91;5034500;28;20059;-86
2022/01/24 12:49:28;;;;;;;24.08;13.30;;;;;;;1.27;55.97;102002.03;5033925;28;20403;-85
2022/01/24 12:51:54;;;;;;;26.33;14.68;;;;;;;1.21;56.40;101986.25;5015979;28;20050;-88
2022/01/24 12:54:27;;;;;;;29.33;13.38;;;;;;;1.35;56.06;102004.50;5033297;28;20052;-88